createdAt,value
2022-10-01T00:01:25.409Z,45.78
2022-10-01T00:03:52.251Z,46.06
2022-10-01T00:06:20.958Z,45.85
2022-10-01T00:08:49.555Z,45.57
2022-10-01T00:11:25.324Z,46.06
2022-10-01T00:13:54.124Z,45.72
2022-10-01T00:16:24.022Z,47.35
2022-10-01T00:18:52.487Z,48.69
2022-10-01T00:21:22.020Z,47.83
2022-10-01T00:23:54.475Z,47.54
2022-10-01T00:26:24.952Z,47.38
2022-10-01T00:29:01.152Z,47.51
2022-10-01T00:31:29.061Z,47.43
2022-10-01T00:33:57.844Z,47.13
2022-10-01T00:36:25.539Z,48.91
2022-10-01T00:38:52.312Z,47.85
2022-10-01T00:41:19.391Z,47.61
2022-10-01T00:43:50.275Z,47.21
2022-10-01T00:46:41.418Z,48.03
2022-10-01T00:49:18.158Z,47.47
2022-10-01T00:51:49.946Z,47.60
2022-10-01T00:54:22.795Z,47.67
2022-10-01T00:56:55.598Z,47.43
2022-10-01T00:59:22.627Z,47.27
2022-10-01T01:01:49.582Z,46.96
2022-10-01T01:04:16.710Z,47.36
2022-10-01T01:06:53.674Z,47.47
2022-10-01T01:09:21.593Z,47.80
2022-10-01T01:12:02.996Z,47.27
2022-10-01T01:14:41.937Z,47.30
2022-10-01T01:17:23.072Z,48.20
2022-10-01T01:20:25.641Z,48.14
2022-10-01T01:23:20.803Z,48.26
2022-10-01T01:26:10.738Z,47.62
2022-10-01T01:28:44.463Z,47.35
2022-10-01T01:31:16.421Z,47.91
2022-10-01T01:33:48.172Z,48.90
2022-10-01T01:36:19.226Z,48.41
2022-10-01T01:38:53.840Z,48.79
2022-10-01T01:41:24.335Z,47.87
2022-10-01T01:43:54.654Z,49.29
2022-10-01T01:46:22.139Z,48.63
2022-10-01T01:48:51.884Z,49.65
2022-10-01T01:51:25.557Z,50.40
2022-10-01T01:53:52.423Z,49.89
2022-10-01T01:56:19.167Z,49.68
2022-10-01T01:58:46.605Z,50.80
2022-10-01T02:01:36.808Z,49.35
2022-10-01T02:04:12.610Z,49.02
2022-10-01T02:06:45.473Z,48.67
2022-10-01T02:09:25.313Z,48.88
2022-10-01T02:12:00.840Z,48.61
2022-10-01T02:14:39.461Z,49.42
2022-10-01T02:17:23.753Z,50.45
2022-10-01T02:20:02.514Z,51.91
2022-10-01T02:22:42.469Z,51.13
2022-10-01T02:25:11.563Z,50.56
2022-10-01T02:27:47.007Z,50.40
2022-10-01T02:30:14.576Z,50.13
2022-10-01T02:32:44.305Z,49.89
2022-10-01T02:35:13.949Z,49.82
2022-10-01T02:37:43.356Z,49.45
2022-10-01T02:40:14.400Z,49.28
2022-10-01T02:42:43.800Z,49.24
2022-10-01T02:45:12.303Z,49.05
2022-10-01T02:47:47.501Z,49.00
2022-10-01T02:50:14.796Z,49.17
2022-10-01T02:53:03.056Z,49.48
2022-10-01T02:55:33.384Z,48.93
2022-10-01T02:58:00.165Z,48.96
2022-10-01T03:00:27.248Z,49.95
2022-10-01T03:02:54.724Z,50.12
2022-10-01T03:05:21.869Z,49.92
2022-10-01T03:07:48.995Z,50.04
2022-10-01T03:10:16.911Z,49.72
2022-10-01T03:12:44.883Z,50.21
2022-10-01T03:15:13.755Z,51.52
2022-10-01T03:17:40.663Z,50.70
2022-10-01T03:20:08.427Z,50.09
2022-10-01T03:22:35.425Z,50.03
2022-10-01T03:25:02.221Z,49.93
2022-10-01T03:27:28.973Z,49.99
2022-10-01T03:29:55.924Z,49.78
2022-10-01T03:32:22.796Z,49.68
2022-10-01T03:34:49.627Z,50.49
2022-10-01T03:37:16.532Z,50.91
2022-10-01T03:39:43.395Z,50.86
2022-10-01T03:42:10.246Z,50.57
2022-10-01T03:44:37.118Z,50.48
2022-10-01T03:47:03.929Z,50.67
2022-10-01T03:49:30.764Z,50.85
2022-10-01T03:51:57.637Z,50.71
2022-10-01T03:54:24.461Z,51.24
2022-10-01T03:56:51.308Z,51.94
2022-10-01T03:59:18.499Z,51.72
2022-10-01T04:01:45.415Z,51.58
2022-10-01T04:04:12.363Z,51.27
2022-10-01T04:06:39.237Z,51.09
2022-10-01T04:09:06.178Z,50.79
2022-10-01T04:11:33.107Z,50.27
2022-10-01T04:14:00.130Z,49.62
2022-10-01T04:16:27.056Z,49.03
2022-10-01T04:18:54.063Z,48.92
2022-10-01T04:21:21.297Z,48.68
2022-10-01T04:23:48.097Z,49.33
2022-10-01T04:26:14.853Z,49.38
2022-10-01T04:28:41.698Z,48.96
2022-10-01T04:31:08.537Z,49.09
2022-10-01T04:33:35.393Z,48.97
2022-10-01T04:36:02.284Z,49.11
2022-10-01T04:38:29.071Z,48.65
2022-10-01T04:40:55.860Z,49.06
2022-10-01T04:43:22.777Z,48.11
2022-10-01T04:45:52.294Z,47.85
2022-10-01T04:48:19.186Z,47.21
2022-10-01T04:50:46.093Z,46.11
2022-10-01T04:53:13.106Z,45.70
2022-10-01T04:55:39.877Z,45.83
2022-10-01T04:58:06.698Z,45.28
2022-10-01T05:00:33.962Z,44.58
2022-10-01T05:03:00.761Z,44.49
2022-10-01T05:05:27.925Z,44.15
2022-10-01T05:07:55.413Z,43.62
2022-10-01T05:10:23.518Z,43.14
2022-10-01T05:12:50.759Z,44.32
2022-10-01T05:15:18.716Z,45.37
2022-10-01T05:17:47.205Z,45.09
2022-10-01T05:20:22.594Z,44.68
2022-10-01T05:22:49.735Z,43.66
2022-10-01T05:25:17.653Z,43.85
2022-10-01T05:27:44.654Z,45.61
2022-10-01T05:30:13.742Z,46.45
2022-10-01T05:32:40.797Z,46.28
2022-10-01T05:35:10.831Z,45.90
2022-10-01T05:37:39.978Z,45.00
2022-10-01T05:40:07.101Z,44.79
2022-10-01T05:42:33.956Z,43.04
2022-10-01T05:45:00.703Z,42.68
2022-10-01T05:47:27.460Z,42.67
2022-10-01T05:52:20.870Z,42.46
2022-10-01T05:54:47.615Z,42.36
2022-10-01T05:57:14.464Z,42.82
2022-10-01T05:59:41.268Z,42.48
2022-10-01T06:02:10.204Z,42.55
2022-10-01T06:04:41.010Z,41.78
2022-10-01T06:07:08.117Z,41.12
2022-10-01T06:09:34.927Z,40.66
2022-10-01T06:12:02.132Z,40.30
2022-10-01T06:14:28.874Z,40.74
2022-10-01T06:16:55.705Z,40.11
2022-10-01T06:19:22.557Z,39.00
2022-10-01T06:21:49.497Z,39.11
2022-10-01T06:24:16.230Z,38.85
2022-10-01T06:26:43.074Z,38.73
2022-10-01T06:29:10.783Z,39.34
2022-10-01T06:31:38.037Z,39.83
2022-10-01T06:34:05.692Z,39.44
2022-10-01T06:36:34.090Z,39.44
2022-10-01T06:39:00.815Z,39.52
2022-10-01T06:41:27.689Z,39.93
2022-10-01T06:43:54.457Z,40.02
2022-10-01T06:46:21.289Z,40.04
2022-10-01T06:48:48.262Z,39.33
2022-10-01T06:51:15.066Z,38.39
2022-10-01T06:53:41.882Z,37.10
2022-10-01T06:56:08.814Z,37.50
2022-10-01T06:58:35.556Z,36.74
2022-10-01T07:01:03.427Z,36.22
2022-10-01T07:03:33.080Z,36.34
2022-10-01T07:06:05.388Z,35.81
2022-10-01T07:08:32.143Z,36.00
2022-10-01T07:11:03.171Z,36.12
2022-10-01T07:13:30.241Z,36.57
2022-10-01T07:15:57.252Z,35.85
2022-10-01T07:18:24.209Z,36.37
2022-10-01T07:20:51.175Z,36.59
2022-10-01T07:23:17.986Z,36.66
2022-10-01T07:25:48.411Z,36.29
2022-10-01T07:28:20.385Z,36.19
2022-10-01T07:31:06.525Z,36.42
2022-10-01T07:33:33.775Z,35.13
2022-10-01T07:36:06.394Z,34.72
2022-10-01T07:38:33.765Z,35.72
2022-10-01T07:41:01.223Z,35.30
2022-10-01T07:43:28.869Z,35.18
2022-10-01T07:45:55.672Z,34.74
2022-10-01T07:48:22.600Z,34.43
2022-10-01T07:50:49.446Z,34.80
2022-10-01T07:53:17.019Z,35.33
2022-10-01T07:55:43.842Z,35.24
2022-10-01T07:58:12.186Z,35.03
2022-10-01T08:00:39.956Z,34.93
2022-10-01T08:03:06.997Z,34.29
2022-10-01T08:05:36.038Z,33.71
2022-10-01T08:08:06.455Z,34.01
2022-10-01T08:10:34.526Z,33.67
2022-10-01T08:13:05.671Z,33.42
2022-10-01T08:15:32.435Z,33.74
2022-10-01T08:18:02.164Z,32.99
2022-10-01T08:20:29.373Z,33.26
2022-10-01T08:23:05.958Z,32.07
2022-10-01T08:25:33.610Z,32.94
2022-10-01T08:28:00.905Z,33.40
2022-10-01T08:30:28.791Z,33.74
2022-10-01T08:33:04.244Z,32.77
2022-10-01T08:35:31.598Z,32.59
2022-10-01T08:38:02.792Z,32.66
2022-10-01T08:40:30.422Z,32.13
2022-10-01T08:43:04.621Z,32.05
2022-10-01T08:45:53.224Z,31.75
2022-10-01T08:48:38.452Z,32.73
2022-10-01T08:51:31.598Z,32.70
2022-10-01T08:54:20.199Z,32.33
2022-10-01T08:56:47.849Z,32.84
2022-10-01T08:59:40.605Z,32.65
2022-10-01T09:02:19.106Z,32.35
2022-10-01T09:04:48.484Z,32.14
2022-10-01T09:07:42.909Z,32.27
2022-10-01T09:10:28.599Z,32.41
2022-10-01T09:13:14.070Z,31.09
2022-10-01T09:15:54.538Z,30.60
2022-10-01T09:18:58.463Z,31.65
2022-10-01T09:21:55.787Z,32.06
2022-10-01T09:24:44.973Z,32.37
2022-10-01T09:27:23.504Z,32.47
2022-10-01T09:30:03.365Z,33.00
2022-10-01T09:32:44.150Z,32.30
2022-10-01T09:35:47.394Z,31.66
2022-10-01T09:38:18.957Z,31.69
2022-10-01T09:40:55.459Z,31.32
2022-10-01T09:43:34.152Z,30.42
2022-10-01T09:46:01.284Z,31.29
2022-10-01T09:48:43.394Z,31.95
2022-10-01T09:51:13.124Z,31.50
2022-10-01T09:54:13.137Z,30.74
2022-10-01T09:56:48.462Z,31.43
2022-10-01T09:59:24.316Z,31.96
2022-10-01T10:01:55.891Z,30.84
2022-10-01T10:04:23.596Z,31.35
2022-10-01T10:06:51.936Z,30.66
2022-10-01T10:09:24.473Z,31.40
2022-10-01T10:11:51.517Z,31.30
2022-10-01T10:14:22.173Z,30.81
2022-10-01T10:16:49.016Z,30.16
2022-10-01T10:19:24.264Z,30.03
2022-10-01T10:21:53.759Z,30.67
2022-10-01T10:24:32.833Z,29.96
2022-10-01T10:27:01.783Z,29.66
2022-10-01T10:29:36.301Z,30.41
2022-10-01T10:32:19.269Z,30.64
2022-10-01T10:34:46.704Z,29.63
2022-10-01T10:37:16.595Z,29.99
2022-10-01T10:39:48.683Z,30.11
2022-10-01T10:42:17.907Z,29.89
2022-10-01T10:44:49.028Z,30.47
2022-10-01T10:47:18.736Z,29.85
2022-10-01T10:49:49.650Z,31.11
2022-10-01T10:52:21.117Z,30.94
2022-10-01T10:54:49.640Z,30.41
2022-10-01T10:57:19.596Z,29.67
2022-10-01T10:59:55.588Z,30.45
2022-10-01T11:02:26.899Z,29.91
2022-10-01T11:04:55.014Z,30.97
2022-10-01T11:07:24.593Z,30.45
2022-10-01T11:10:00.246Z,30.75
2022-10-01T11:12:35.011Z,30.98
2022-10-01T11:15:04.497Z,31.06
2022-10-01T11:17:53.671Z,30.45
2022-10-01T11:20:23.495Z,31.01
2022-10-01T11:23:08.555Z,30.57
2022-10-01T11:26:08.377Z,30.98
2022-10-01T11:28:41.165Z,31.82
2022-10-01T11:31:45.308Z,30.94
2022-10-01T11:34:30.470Z,30.34
2022-10-01T11:37:20.514Z,30.67
2022-10-01T11:39:51.387Z,29.88
2022-10-01T11:42:26.619Z,29.79
2022-10-01T11:45:14.063Z,29.37
2022-10-01T11:47:47.310Z,29.31
2022-10-01T11:50:19.016Z,29.53
2022-10-01T11:53:09.789Z,29.29
2022-10-01T11:55:52.197Z,28.42
2022-10-01T11:58:58.996Z,28.62
2022-10-01T12:02:03.063Z,29.15
2022-10-01T12:04:42.231Z,27.97
2022-10-01T12:07:25.805Z,27.24
2022-10-01T12:09:55.903Z,26.67
2022-10-01T12:12:35.170Z,26.75
2022-10-01T12:15:09.862Z,27.51
2022-10-01T12:18:01.561Z,28.66
2022-10-01T12:20:38.305Z,28.34
2022-10-01T12:23:08.134Z,28.40
2022-10-01T12:25:43.910Z,28.72
2022-10-01T12:28:17.607Z,28.17
2022-10-01T12:31:04.155Z,28.31
2022-10-01T12:33:56.357Z,27.65
2022-10-01T12:36:35.337Z,27.87
2022-10-01T12:39:35.065Z,28.31
2022-10-01T12:42:04.821Z,28.27
2022-10-01T12:44:31.457Z,28.10
2022-10-01T12:47:23.613Z,27.49
2022-10-01T12:50:08.032Z,27.75
2022-10-01T12:53:08.449Z,28.10
2022-10-01T12:55:54.680Z,27.31
2022-10-01T12:58:36.665Z,26.89
2022-10-01T13:01:11.764Z,26.68
2022-10-01T13:04:03.392Z,24.46
2022-10-01T13:06:56.547Z,23.81
2022-10-01T13:09:28.850Z,24.34
2022-10-01T13:12:13.967Z,23.88
2022-10-01T13:14:42.021Z,23.15
2022-10-01T13:17:18.607Z,24.07
2022-10-01T13:19:52.469Z,21.26
2022-10-01T13:22:43.882Z,21.19
2022-10-01T13:26:00.347Z,20.46
2022-10-01T13:29:00.846Z,20.97
2022-10-01T13:31:52.685Z,19.71
2022-10-01T13:34:37.648Z,18.26
2022-10-01T13:37:17.765Z,17.78
2022-10-01T13:39:45.737Z,19.01
2022-10-01T13:42:25.615Z,20.03
2022-10-01T13:45:01.971Z,19.93
2022-10-01T13:47:29.028Z,18.93
2022-10-01T13:50:01.761Z,19.35
2022-10-01T13:52:29.480Z,19.45
2022-10-01T13:54:57.643Z,19.57
2022-10-01T13:57:35.068Z,21.22
2022-10-01T14:00:06.073Z,21.67
2022-10-01T14:02:37.189Z,22.47
2022-10-01T14:05:35.933Z,22.58
2022-10-01T14:08:14.926Z,22.67
2022-10-01T14:10:49.598Z,22.29
2022-10-01T14:13:21.466Z,22.50
2022-10-01T14:15:48.923Z,22.26
2022-10-01T14:18:21.031Z,23.20
2022-10-01T14:20:50.571Z,22.95
2022-10-01T14:23:25.375Z,22.92
2022-10-01T14:26:03.253Z,23.05
2022-10-01T14:28:51.195Z,22.58
2022-10-01T14:31:44.792Z,22.46
2022-10-01T14:34:28.557Z,22.03
2022-10-01T14:36:56.333Z,22.51
2022-10-01T14:39:29.979Z,22.59
2022-10-01T14:41:58.173Z,22.73
2022-10-01T14:44:38.928Z,23.11
2022-10-01T14:47:19.950Z,23.01
2022-10-01T14:49:47.572Z,23.39
2022-10-01T14:52:20.156Z,23.11
2022-10-01T14:55:11.851Z,23.43
2022-10-01T14:57:42.332Z,24.18
2022-10-01T15:00:15.874Z,24.19
2022-10-01T15:02:50.606Z,24.55
2022-10-01T15:05:27.543Z,24.64
2022-10-01T15:07:54.307Z,24.77
2022-10-01T15:10:25.045Z,24.53
2022-10-01T15:12:53.814Z,24.99
2022-10-01T15:15:31.297Z,24.82
2022-10-01T15:17:58.463Z,25.01
2022-10-01T15:20:25.548Z,24.80
2022-10-01T15:22:52.426Z,25.27
2022-10-01T15:25:25.777Z,25.17
2022-10-01T15:27:52.553Z,25.36
2022-10-01T15:30:22.828Z,25.49
2022-10-01T15:32:51.065Z,25.80
2022-10-01T15:35:23.026Z,25.72
2022-10-01T15:37:50.959Z,25.74
2022-10-01T15:40:44.228Z,26.43
2022-10-01T15:43:24.130Z,26.48
2022-10-01T15:46:11.045Z,26.63
2022-10-01T15:48:37.947Z,26.78
2022-10-01T15:51:28.304Z,27.13
2022-10-01T15:54:08.896Z,27.04
2022-10-01T15:56:35.977Z,27.51
2022-10-01T15:59:18.787Z,27.55
2022-10-01T16:01:45.687Z,27.56
2022-10-01T16:04:14.524Z,27.74
2022-10-01T16:06:46.095Z,28.04
2022-10-01T16:09:30.189Z,28.23
2022-10-01T16:12:03.917Z,28.66
2022-10-01T16:14:56.316Z,29.03
2022-10-01T16:17:30.445Z,28.75
2022-10-01T16:20:18.391Z,29.04
2022-10-01T16:22:45.279Z,29.28
2022-10-01T16:25:20.906Z,29.36
2022-10-01T16:27:50.153Z,30.15
2022-10-01T16:30:32.250Z,30.10
2022-10-01T16:33:01.148Z,30.93
2022-10-01T16:35:30.156Z,31.35
2022-10-01T16:37:58.220Z,31.46
2022-10-01T16:40:31.140Z,31.43
2022-10-01T16:42:59.694Z,31.12
2022-10-01T16:45:32.695Z,31.51
2022-10-01T16:48:00.484Z,31.49
2022-10-01T16:50:27.545Z,31.74
2022-10-01T16:52:55.826Z,31.67
2022-10-01T16:55:28.087Z,32.18
2022-10-01T16:57:54.987Z,32.42
2022-10-01T17:00:24.462Z,32.68
2022-10-01T17:02:51.794Z,32.86
2022-10-01T17:05:22.776Z,32.78
2022-10-01T17:07:49.844Z,32.79
2022-10-01T17:10:18.254Z,33.35
2022-10-01T17:12:45.816Z,33.46
2022-10-01T17:15:15.019Z,33.00
2022-10-01T17:17:41.999Z,33.51
2022-10-01T17:20:09.310Z,33.86
2022-10-01T17:22:36.247Z,33.61
2022-10-01T17:25:03.092Z,33.90
2022-10-01T17:27:29.843Z,34.07
2022-10-01T17:29:56.725Z,34.52
2022-10-01T17:32:23.718Z,34.70
2022-10-01T17:34:50.537Z,34.62
2022-10-01T17:37:17.321Z,34.83
2022-10-01T17:39:44.070Z,34.46
2022-10-01T17:42:11.325Z,34.49
2022-10-01T17:44:38.177Z,34.98
2022-10-01T17:47:04.905Z,35.00
2022-10-01T17:49:31.700Z,34.95
2022-10-01T17:51:58.552Z,34.94
2022-10-01T17:54:25.320Z,35.06
2022-10-01T17:56:53.399Z,34.95
2022-10-01T17:59:20.220Z,34.83
2022-10-01T18:01:47.168Z,34.96
2022-10-01T18:04:13.976Z,35.04
2022-10-01T18:06:41.231Z,35.14
2022-10-01T18:09:14.314Z,35.35
2022-10-01T18:11:41.202Z,35.23
2022-10-01T18:14:07.956Z,35.32
2022-10-01T18:16:35.449Z,35.32
2022-10-01T18:21:52.512Z,34.86
2022-10-01T18:24:19.400Z,34.39
2022-10-01T18:26:46.326Z,34.52
2022-10-01T18:29:24.763Z,34.58
2022-10-01T18:31:59.490Z,34.58
2022-10-01T18:34:32.470Z,34.44
2022-10-01T18:37:08.200Z,34.81
2022-10-01T18:39:49.590Z,34.44
2022-10-01T18:42:25.078Z,34.59
2022-10-01T18:45:03.420Z,34.04
2022-10-01T18:47:38.902Z,34.46
2022-10-01T18:50:33.096Z,34.99
2022-10-01T18:52:59.828Z,34.91
2022-10-01T18:55:54.148Z,35.00
2022-10-01T18:58:23.907Z,35.60
2022-10-01T19:01:29.425Z,35.15
2022-10-01T19:04:08.282Z,34.97
2022-10-01T19:06:47.530Z,35.44
2022-10-01T19:09:16.899Z,35.33
2022-10-01T19:11:55.713Z,34.87
2022-10-01T19:14:47.281Z,34.56
2022-10-01T19:17:23.134Z,35.03
2022-10-01T19:20:07.030Z,35.10
2022-10-01T19:23:01.411Z,35.08
2022-10-01T19:25:51.672Z,35.13
2022-10-01T19:28:53.872Z,35.15
2022-10-01T19:31:52.826Z,35.76
2022-10-01T19:34:32.473Z,35.51
2022-10-01T19:37:29.277Z,35.49
2022-10-01T19:40:05.975Z,35.11
2022-10-01T19:42:40.528Z,35.21
2022-10-01T19:45:13.395Z,35.36
2022-10-01T19:47:52.345Z,35.40
2022-10-01T19:50:24.349Z,35.56
2022-10-01T19:52:55.775Z,35.82
2022-10-01T19:55:24.444Z,36.08
2022-10-01T19:57:51.744Z,36.14
2022-10-01T20:00:20.721Z,36.33
2022-10-01T20:03:16.236Z,36.63
2022-10-01T20:05:57.708Z,36.54
2022-10-01T20:08:24.628Z,36.40
2022-10-01T20:10:59.920Z,36.24
2022-10-01T20:13:59.717Z,35.99
2022-10-01T20:16:29.070Z,36.15
2022-10-01T20:19:25.748Z,36.18
2022-10-01T20:22:06.123Z,36.29
2022-10-01T20:24:35.928Z,36.33
2022-10-01T20:27:07.794Z,36.76
2022-10-01T20:30:09.040Z,36.94
2022-10-01T20:32:53.280Z,37.50
2022-10-01T20:35:30.174Z,37.42
2022-10-01T20:38:15.114Z,37.38
2022-10-01T20:40:49.235Z,37.21
2022-10-01T20:43:22.243Z,37.08
2022-10-01T20:45:53.610Z,37.44
2022-10-01T20:48:25.673Z,37.29
2022-10-01T20:50:55.608Z,37.54
2022-10-01T20:53:28.831Z,37.41
2022-10-01T20:56:04.339Z,37.38
2022-10-01T20:58:35.561Z,37.80
2022-10-01T21:01:09.743Z,38.22
2022-10-01T21:03:43.385Z,38.06
2022-10-01T21:06:26.008Z,38.33
2022-10-01T21:09:18.749Z,38.62
2022-10-01T21:12:09.116Z,38.75
2022-10-01T21:14:46.953Z,39.17
2022-10-01T21:17:32.446Z,39.28
2022-10-01T21:20:23.772Z,38.69
2022-10-01T21:23:32.262Z,37.99
2022-10-01T21:26:07.189Z,37.31
2022-10-01T21:28:53.621Z,37.19
2022-10-01T21:31:39.267Z,37.17
2022-10-01T21:34:18.202Z,36.90
2022-10-01T21:37:38.818Z,36.78
2022-10-01T21:40:39.465Z,36.68
2022-10-01T21:43:25.652Z,36.33
2022-10-01T21:46:09.376Z,36.18
2022-10-01T21:49:00.313Z,36.02
2022-10-01T21:51:39.921Z,35.70
2022-10-01T21:54:27.045Z,35.76
2022-10-01T21:56:59.868Z,35.75
2022-10-01T22:00:04.305Z,36.17
2022-10-01T22:03:10.723Z,36.86
2022-10-01T22:05:54.992Z,37.16
2022-10-01T22:08:36.975Z,37.55
2022-10-01T22:11:12.248Z,38.45
2022-10-01T22:13:48.202Z,38.40
2022-10-01T22:16:16.346Z,37.65
2022-10-01T22:19:07.195Z,37.71
2022-10-01T22:21:45.488Z,37.63
2022-10-01T22:24:17.559Z,37.58
2022-10-01T22:26:52.786Z,37.56
2022-10-01T22:29:25.674Z,37.50
2022-10-01T22:31:59.218Z,37.51
2022-10-01T22:34:32.349Z,37.17
2022-10-01T22:37:05.866Z,38.26
2022-10-01T22:39:48.782Z,37.95
2022-10-01T22:42:21.945Z,38.46
2022-10-01T22:44:48.934Z,38.29
2022-10-01T22:47:37.571Z,38.10
2022-10-01T22:50:21.404Z,38.11
2022-10-01T22:53:01.749Z,38.15
2022-10-01T22:55:52.770Z,39.26
2022-10-01T22:59:07.460Z,39.67
2022-10-01T23:01:55.852Z,40.55
2022-10-01T23:04:40.564Z,39.55
2022-10-01T23:07:29.214Z,40.08
2022-10-01T23:10:03.633Z,39.66
2022-10-01T23:13:09.173Z,39.36
2022-10-01T23:16:01.290Z,39.90
2022-10-01T23:18:57.351Z,39.45
2022-10-01T23:21:50.370Z,39.31
2022-10-01T23:24:48.357Z,38.97
2022-10-01T23:27:34.058Z,38.78
2022-10-01T23:30:17.541Z,38.95
2022-10-01T23:33:03.871Z,38.71
2022-10-01T23:35:50.494Z,38.69
2022-10-01T23:38:32.618Z,38.33
2022-10-01T23:41:08.438Z,38.55
2022-10-01T23:43:45.143Z,39.82
2022-10-01T23:46:25.096Z,39.29
2022-10-01T23:48:54.578Z,39.33
2022-10-01T23:51:48.755Z,39.10
2022-10-01T23:54:38.590Z,38.62
2022-10-01T23:57:05.487Z,39.08
2022-10-01T23:59:52.901Z,39.28
